<?xml version="1.0" encoding="UTF-8" standalone="no" ?>
<gpx xmlns="http://www.topografix.com/GPX/1/1" xmlns:xsi="http://www.w3.org/2001/XMLSchema-instance" xsi:schemaLocation="http://www.topografix.com/GPX/1/1 http://www.topografix.com/GPX/1/1/gpx.xsd" version="1.1" creator="VisuGPX - https://www.visugpx.com">
  <metadata>
    <name>Boucle de Serrières</name>
    <desc><![CDATA[Boucle de 13 km au départ de Serrières]]></desc>
  </metadata>
  <trk>
    <name><![CDATA[Tracé actuel: 18 SEPT 2016 08:39]]></name>
    <trkseg>
      <trkpt lat="45.31463" lon="4.7698">
        <ele>138.09</ele>
        <time>2016-09-18T06:39:56Z</time>
      </trkpt>
      <trkpt lat="45.31449" lon="4.77005">
        <ele>144.34</ele>
        <time>2016-09-18T06:40:15Z</time>
      </trkpt>
      <trkpt lat="45.31432" lon="4.7705">
        <ele>144.82</ele>
        <time>2016-09-18T06:40:45Z</time>
      </trkpt>
      <trkpt lat="45.3141" lon="4.77075">
        <ele>143.37</ele>
        <time>2016-09-18T06:41:04Z</time>
      </trkpt>
      <trkpt lat="45.31393" lon="4.77089">
        <ele>145.3</ele>
        <time>2016-09-18T06:41:28Z</time>
      </trkpt>
      <trkpt lat="45.31391" lon="4.7707">
        <ele>142.41</ele>
        <time>2016-09-18T06:42:27Z</time>
      </trkpt>
      <trkpt lat="45.31383" lon="4.77025">
        <ele>142.41</ele>
        <time>2016-09-18T06:43:02Z</time>
      </trkpt>
      <trkpt lat="45.3136" lon="4.77011">
        <ele>148.18</ele>
        <time>2016-09-18T06:43:49Z</time>
      </trkpt>
      <trkpt lat="45.31335" lon="4.77014">
        <ele>149.14</ele>
        <time>2016-09-18T06:44:10Z</time>
      </trkpt>
      <trkpt lat="45.31307" lon="4.76987">
        <ele>151.54</ele>
        <time>2016-09-18T06:44:38Z</time>
      </trkpt>
      <trkpt lat="45.31283" lon="4.76976">
        <ele>152.51</ele>
        <time>2016-09-18T06:45:02Z</time>
      </trkpt>
      <trkpt lat="45.31259" lon="4.76968">
        <ele>153.47</ele>
        <time>2016-09-18T06:45:32Z</time>
      </trkpt>
      <trkpt lat="45.31223" lon="4.7696">
        <ele>157.31</ele>
        <time>2016-09-18T06:46:02Z</time>
      </trkpt>
      <trkpt lat="45.31196" lon="4.76953">
        <ele>161.16</ele>
        <time>2016-09-18T06:46:31Z</time>
      </trkpt>
      <trkpt lat="45.31172" lon="4.76931">
        <ele>166.45</ele>
        <time>2016-09-18T06:47:05Z</time>
      </trkpt>
      <trkpt lat="45.31154" lon="4.76909">
        <ele>172.69</ele>
        <time>2016-09-18T06:47:34Z</time>
      </trkpt>
      <trkpt lat="45.31136" lon="4.76886">
        <ele>175.58</ele>
        <time>2016-09-18T06:48:01Z</time>
      </trkpt>
      <trkpt lat="45.31113" lon="4.7686">
        <ele>178.94</ele>
        <time>2016-09-18T06:48:31Z</time>
      </trkpt>
      <trkpt lat="45.31084" lon="4.76828">
        <ele>180.38</ele>
        <time>2016-09-18T06:49:09Z</time>
      </trkpt>
      <trkpt lat="45.3106" lon="4.76797">
        <ele>182.31</ele>
        <time>2016-09-18T06:49:42Z</time>
      </trkpt>
      <trkpt lat="45.31036" lon="4.76767">
        <ele>183.27</ele>
        <time>2016-09-18T06:50:13Z</time>
      </trkpt>
      <trkpt lat="45.31018" lon="4.76723">
        <ele>185.19</ele>
        <time>2016-09-18T06:50:50Z</time>
      </trkpt>
      <trkpt lat="45.31008" lon="4.76686">
        <ele>189.04</ele>
        <time>2016-09-18T06:51:20Z</time>
      </trkpt>
      <trkpt lat="45.3099" lon="4.76654">
        <ele>193.84</ele>
        <time>2016-09-18T06:51:52Z</time>
      </trkpt>
      <trkpt lat="45.30978" lon="4.76626">
        <ele>196.25</ele>
        <time>2016-09-18T06:52:16Z</time>
      </trkpt>
      <trkpt lat="45.30964" lon="4.76593">
        <ele>197.21</ele>
        <time>2016-09-18T06:52:44Z</time>
      </trkpt>
      <trkpt lat="45.30953" lon="4.76555">
        <ele>204.42</ele>
        <time>2016-09-18T06:53:19Z</time>
      </trkpt>
      <trkpt lat="45.30947" lon="4.76518">
        <ele>209.22</ele>
        <time>2016-09-18T06:53:50Z</time>
      </trkpt>
      <trkpt lat="45.30934" lon="4.76479">
        <ele>214.03</ele>
        <time>2016-09-18T06:54:26Z</time>
      </trkpt>
      <trkpt lat="45.30928" lon="4.76438">
        <ele>221.72</ele>
        <time>2016-09-18T06:55:03Z</time>
      </trkpt>
      <trkpt lat="45.3094" lon="4.76407">
        <ele>222.2</ele>
        <time>2016-09-18T06:55:26Z</time>
      </trkpt>
      <trkpt lat="45.30935" lon="4.76358">
        <ele>220.28</ele>
        <time>2016-09-18T06:56:01Z</time>
      </trkpt>
      <trkpt lat="45.30928" lon="4.76321">
        <ele>223.64</ele>
        <time>2016-09-18T06:56:29Z</time>
      </trkpt>
      <trkpt lat="45.30917" lon="4.76282">
        <ele>233.74</ele>
        <time>2016-09-18T06:57:18Z</time>
      </trkpt>
      <trkpt lat="45.30896" lon="4.76251">
        <ele>247.68</ele>
        <time>2016-09-18T06:58:00Z</time>
      </trkpt>
      <trkpt lat="45.30873" lon="4.76239">
        <ele>253.44</ele>
        <time>2016-09-18T06:58:30Z</time>
      </trkpt>
      <trkpt lat="45.30859" lon="4.76211">
        <ele>254.89</ele>
        <time>2016-09-18T06:58:48Z</time>
      </trkpt>
      <trkpt lat="45.30885" lon="4.76203">
        <ele>255.37</ele>
        <time>2016-09-18T06:59:26Z</time>
      </trkpt>
      <trkpt lat="45.30914" lon="4.76196">
        <ele>255.85</ele>
        <time>2016-09-18T06:59:56Z</time>
      </trkpt>
      <trkpt lat="45.30939" lon="4.76172">
        <ele>254.41</ele>
        <time>2016-09-18T07:00:27Z</time>
      </trkpt>
      <trkpt lat="45.30943" lon="4.76136">
        <ele>253.44</ele>
        <time>2016-09-18T07:00:55Z</time>
      </trkpt>
      <trkpt lat="45.30945" lon="4.76103">
        <ele>256.81</ele>
        <time>2016-09-18T07:01:23Z</time>
      </trkpt>
      <trkpt lat="45.3094" lon="4.76067">
        <ele>255.85</ele>
        <time>2016-09-18T07:01:52Z</time>
      </trkpt>
      <trkpt lat="45.30929" lon="4.76024">
        <ele>262.58</ele>
        <time>2016-09-18T07:02:33Z</time>
      </trkpt>
      <trkpt lat="45.30927" lon="4.75991">
        <ele>267.38</ele>
        <time>2016-09-18T07:03:03Z</time>
      </trkpt>
      <trkpt lat="45.30924" lon="4.75958">
        <ele>273.63</ele>
        <time>2016-09-18T07:03:30Z</time>
      </trkpt>
      <trkpt lat="45.30915" lon="4.75917">
        <ele>278.92</ele>
        <time>2016-09-18T07:04:06Z</time>
      </trkpt>
      <trkpt lat="45.30899" lon="4.75878">
        <ele>288.53</ele>
        <time>2016-09-18T07:04:43Z</time>
      </trkpt>
      <trkpt lat="45.3088" lon="4.75852">
        <ele>290.46</ele>
        <time>2016-09-18T07:05:17Z</time>
      </trkpt>
      <trkpt lat="45.3086" lon="4.75834">
        <ele>293.34</ele>
        <time>2016-09-18T07:05:55Z</time>
      </trkpt>
      <trkpt lat="45.30835" lon="4.75818">
        <ele>297.67</ele>
        <time>2016-09-18T07:06:21Z</time>
      </trkpt>
      <trkpt lat="45.30808" lon="4.75796">
        <ele>297.18</ele>
        <time>2016-09-18T07:07:38Z</time>
      </trkpt>
      <trkpt lat="45.30787" lon="4.75784">
        <ele>297.67</ele>
        <time>2016-09-18T07:08:05Z</time>
      </trkpt>
      <trkpt lat="45.30762" lon="4.75778">
        <ele>296.7</ele>
        <time>2016-09-18T07:08:31Z</time>
      </trkpt>
      <trkpt lat="45.30735" lon="4.7577">
        <ele>298.15</ele>
        <time>2016-09-18T07:09:04Z</time>
      </trkpt>
      <trkpt lat="45.30708" lon="4.75754">
        <ele>303.43</ele>
        <time>2016-09-18T07:09:27Z</time>
      </trkpt>
      <trkpt lat="45.30712" lon="4.7572">
        <ele>311.12</ele>
        <time>2016-09-18T07:09:50Z</time>
      </trkpt>
      <trkpt lat="45.30705" lon="4.75685">
        <ele>321.7</ele>
        <time>2016-09-18T07:10:15Z</time>
      </trkpt>
      <trkpt lat="45.30684" lon="4.75669">
        <ele>326.5</ele>
        <time>2016-09-18T07:10:39Z</time>
      </trkpt>
      <trkpt lat="45.30653" lon="4.75637">
        <ele>334.2</ele>
        <time>2016-09-18T07:11:25Z</time>
      </trkpt>
      <trkpt lat="45.30631" lon="4.75619">
        <ele>340.44</ele>
        <time>2016-09-18T07:11:55Z</time>
      </trkpt>
      <trkpt lat="45.30598" lon="4.75598">
        <ele>340.92</ele>
        <time>2016-09-18T07:12:35Z</time>
      </trkpt>
      <trkpt lat="45.3057" lon="4.75577">
        <ele>344.77</ele>
        <time>2016-09-18T07:13:07Z</time>
      </trkpt>
      <trkpt lat="45.30547" lon="4.75556">
        <ele>344.77</ele>
        <time>2016-09-18T07:13:38Z</time>
      </trkpt>
      <trkpt lat="45.30521" lon="4.75539">
        <ele>346.69</ele>
        <time>2016-09-18T07:14:09Z</time>
      </trkpt>
      <trkpt lat="45.30494" lon="4.75529">
        <ele>347.65</ele>
        <time>2016-09-18T07:14:39Z</time>
      </trkpt>
      <trkpt lat="45.30465" lon="4.75528">
        <ele>349.1</ele>
        <time>2016-09-18T07:15:10Z</time>
      </trkpt>
      <trkpt lat="45.30438" lon="4.75531">
        <ele>349.58</ele>
        <time>2016-09-18T07:15:38Z</time>
      </trkpt>
      <trkpt lat="45.30414" lon="4.75533">
        <ele>350.54</ele>
        <time>2016-09-18T07:16:03Z</time>
      </trkpt>
      <trkpt lat="45.30381" lon="4.75537">
        <ele>351.5</ele>
        <time>2016-09-18T07:16:36Z</time>
      </trkpt>
      <trkpt lat="45.30347" lon="4.75538">
        <ele>351.98</ele>
        <time>2016-09-18T07:17:11Z</time>
      </trkpt>
      <trkpt lat="45.3032" lon="4.75539">
        <ele>353.42</ele>
        <time>2016-09-18T07:17:40Z</time>
      </trkpt>
      <trkpt lat="45.3028" lon="4.7553">
        <ele>355.34</ele>
        <time>2016-09-18T07:18:20Z</time>
      </trkpt>
      <trkpt lat="45.30244" lon="4.75521">
        <ele>355.83</ele>
        <time>2016-09-18T07:18:57Z</time>
      </trkpt>
      <trkpt lat="45.30209" lon="4.75514">
        <ele>357.27</ele>
        <time>2016-09-18T07:19:31Z</time>
      </trkpt>
      <trkpt lat="45.30175" lon="4.75522">
        <ele>357.27</ele>
        <time>2016-09-18T07:20:06Z</time>
      </trkpt>
      <trkpt lat="45.30136" lon="4.7553">
        <ele>357.27</ele>
        <time>2016-09-18T07:20:42Z</time>
      </trkpt>
      <trkpt lat="45.30099" lon="4.75536">
        <ele>358.71</ele>
        <time>2016-09-18T07:21:17Z</time>
      </trkpt>
      <trkpt lat="45.30062" lon="4.7554">
        <ele>360.15</ele>
        <time>2016-09-18T07:21:52Z</time>
      </trkpt>
      <trkpt lat="45.30024" lon="4.75544">
        <ele>359.67</ele>
        <time>2016-09-18T07:22:29Z</time>
      </trkpt>
      <trkpt lat="45.30002" lon="4.75545">
        <ele>361.11</ele>
        <time>2016-09-18T07:22:53Z</time>
      </trkpt>
      <trkpt lat="45.29956" lon="4.75558">
        <ele>357.75</ele>
        <time>2016-09-18T07:23:33Z</time>
      </trkpt>
      <trkpt lat="45.2993" lon="4.75566">
        <ele>357.75</ele>
        <time>2016-09-18T07:23:55Z</time>
      </trkpt>
      <trkpt lat="45.29905" lon="4.75572">
        <ele>357.27</ele>
        <time>2016-09-18T07:24:17Z</time>
      </trkpt>
      <trkpt lat="45.29875" lon="4.75583">
        <ele>355.83</ele>
        <time>2016-09-18T07:24:45Z</time>
      </trkpt>
      <trkpt lat="45.29852" lon="4.75595">
        <ele>353.9</ele>
        <time>2016-09-18T07:25:07Z</time>
      </trkpt>
      <trkpt lat="45.2981" lon="4.75617">
        <ele>352.94</ele>
        <time>2016-09-18T07:25:46Z</time>
      </trkpt>
      <trkpt lat="45.2978" lon="4.75611">
        <ele>351.5</ele>
        <time>2016-09-18T07:26:14Z</time>
      </trkpt>
      <trkpt lat="45.29742" lon="4.75614">
        <ele>349.1</ele>
        <time>2016-09-18T07:26:51Z</time>
      </trkpt>
      <trkpt lat="45.29704" lon="4.75622">
        <ele>341.41</ele>
        <time>2016-09-18T07:27:28Z</time>
      </trkpt>
      <trkpt lat="45.29665" lon="4.75601">
        <ele>338.52</ele>
        <time>2016-09-18T07:28:06Z</time>
      </trkpt>
      <trkpt lat="45.29663" lon="4.7556">
        <ele>337.08</ele>
        <time>2016-09-18T07:28:35Z</time>
      </trkpt>
      <trkpt lat="45.29655" lon="4.75511">
        <ele>333.23</ele>
        <time>2016-09-18T07:29:10Z</time>
      </trkpt>
      <trkpt lat="45.2963" lon="4.75492">
        <ele>329.87</ele>
        <time>2016-09-18T07:29:41Z</time>
      </trkpt>
      <trkpt lat="45.29607" lon="4.75488">
        <ele>325.06</ele>
        <time>2016-09-18T07:30:05Z</time>
      </trkpt>
      <trkpt lat="45.29614" lon="4.75521">
        <ele>331.79</ele>
        <time>2016-09-18T07:30:39Z</time>
      </trkpt>
      <trkpt lat="45.29618" lon="4.75564">
        <ele>339.96</ele>
        <time>2016-09-18T07:31:08Z</time>
      </trkpt>
      <trkpt lat="45.29624" lon="4.756">
        <ele>353.9</ele>
        <time>2016-09-18T07:31:35Z</time>
      </trkpt>
      <trkpt lat="45.2963" lon="4.75635">
        <ele>361.11</ele>
        <time>2016-09-18T07:31:59Z</time>
      </trkpt>
      <trkpt lat="45.29635" lon="4.75668">
        <ele>357.75</ele>
        <time>2016-09-18T07:32:25Z</time>
      </trkpt>
      <trkpt lat="45.29645" lon="4.75709">
        <ele>351.5</ele>
        <time>2016-09-18T07:32:53Z</time>
      </trkpt>
      <trkpt lat="45.29671" lon="4.75737">
        <ele>350.06</ele>
        <time>2016-09-18T07:33:24Z</time>
      </trkpt>
      <trkpt lat="45.29687" lon="4.75762">
        <ele>346.21</ele>
        <time>2016-09-18T07:33:49Z</time>
      </trkpt>
      <trkpt lat="45.29699" lon="4.75796">
        <ele>344.77</ele>
        <time>2016-09-18T07:34:15Z</time>
      </trkpt>
      <trkpt lat="45.29712" lon="4.75836">
        <ele>346.21</ele>
        <time>2016-09-18T07:34:43Z</time>
      </trkpt>
      <trkpt lat="45.29718" lon="4.75872">
        <ele>342.85</ele>
        <time>2016-09-18T07:35:10Z</time>
      </trkpt>
      <trkpt lat="45.29719" lon="4.75912">
        <ele>344.77</ele>
        <time>2016-09-18T07:35:44Z</time>
      </trkpt>
      <trkpt lat="45.29685" lon="4.75931">
        <ele>348.62</ele>
        <time>2016-09-18T07:36:18Z</time>
      </trkpt>
      <trkpt lat="45.29659" lon="4.75945">
        <ele>347.17</ele>
        <time>2016-09-18T07:37:26Z</time>
      </trkpt>
      <trkpt lat="45.29632" lon="4.75958">
        <ele>349.58</ele>
        <time>2016-09-18T07:37:53Z</time>
      </trkpt>
      <trkpt lat="45.29616" lon="4.75974">
        <ele>353.42</ele>
        <time>2016-09-18T07:39:23Z</time>
      </trkpt>
      <trkpt lat="45.29598" lon="4.76017">
        <ele>351.02</ele>
        <time>2016-09-18T07:40:01Z</time>
      </trkpt>
      <trkpt lat="45.2958" lon="4.76037">
        <ele>350.06</ele>
        <time>2016-09-18T07:40:22Z</time>
      </trkpt>
      <trkpt lat="45.29565" lon="4.76079">
        <ele>351.5</ele>
        <time>2016-09-18T07:40:57Z</time>
      </trkpt>
      <trkpt lat="45.29532" lon="4.76075">
        <ele>349.1</ele>
        <time>2016-09-18T07:41:32Z</time>
      </trkpt>
      <trkpt lat="45.29518" lon="4.76048">
        <ele>348.62</ele>
        <time>2016-09-18T07:41:52Z</time>
      </trkpt>
      <trkpt lat="45.295" lon="4.76023">
        <ele>348.13</ele>
        <time>2016-09-18T07:42:13Z</time>
      </trkpt>
      <trkpt lat="45.29474" lon="4.7598">
        <ele>347.65</ele>
        <time>2016-09-18T07:42:48Z</time>
      </trkpt>
      <trkpt lat="45.29459" lon="4.75951">
        <ele>348.13</ele>
        <time>2016-09-18T07:43:15Z</time>
      </trkpt>
      <trkpt lat="45.29428" lon="4.75956">
        <ele>344.29</ele>
        <time>2016-09-18T07:43:47Z</time>
      </trkpt>
      <trkpt lat="45.29393" lon="4.75962">
        <ele>340.92</ele>
        <time>2016-09-18T07:44:22Z</time>
      </trkpt>
      <trkpt lat="45.29368" lon="4.75969">
        <ele>337.56</ele>
        <time>2016-09-18T07:44:48Z</time>
      </trkpt>
      <trkpt lat="45.29337" lon="4.75984">
        <ele>333.71</ele>
        <time>2016-09-18T07:45:23Z</time>
      </trkpt>
      <trkpt lat="45.29302" lon="4.75981">
        <ele>330.83</ele>
        <time>2016-09-18T07:46:01Z</time>
      </trkpt>
      <trkpt lat="45.29274" lon="4.75974">
        <ele>329.39</ele>
        <time>2016-09-18T07:46:30Z</time>
      </trkpt>
      <trkpt lat="45.29249" lon="4.75955">
        <ele>326.99</ele>
        <time>2016-09-18T07:47:02Z</time>
      </trkpt>
      <trkpt lat="45.29229" lon="4.75936">
        <ele>326.5</ele>
        <time>2016-09-18T07:47:26Z</time>
      </trkpt>
      <trkpt lat="45.29208" lon="4.75915">
        <ele>325.06</ele>
        <time>2016-09-18T07:47:53Z</time>
      </trkpt>
      <trkpt lat="45.29186" lon="4.75905">
        <ele>320.26</ele>
        <time>2016-09-18T07:48:20Z</time>
      </trkpt>
      <trkpt lat="45.29162" lon="4.75901">
        <ele>321.7</ele>
        <time>2016-09-18T07:48:48Z</time>
      </trkpt>
      <trkpt lat="45.29131" lon="4.75902">
        <ele>330.83</ele>
        <time>2016-09-18T07:49:16Z</time>
      </trkpt>
      <trkpt lat="45.29106" lon="4.75909">
        <ele>335.64</ele>
        <time>2016-09-18T07:49:43Z</time>
      </trkpt>
      <trkpt lat="45.29075" lon="4.75912">
        <ele>341.89</ele>
        <time>2016-09-18T07:50:13Z</time>
      </trkpt>
      <trkpt lat="45.2905" lon="4.75907">
        <ele>340.92</ele>
        <time>2016-09-18T07:50:40Z</time>
      </trkpt>
      <trkpt lat="45.29009" lon="4.75907">
        <ele>337.08</ele>
        <time>2016-09-18T07:51:24Z</time>
      </trkpt>
      <trkpt lat="45.28982" lon="4.75898">
        <ele>338.52</ele>
        <time>2016-09-18T07:51:52Z</time>
      </trkpt>
      <trkpt lat="45.28954" lon="4.75915">
        <ele>343.81</ele>
        <time>2016-09-18T07:52:33Z</time>
      </trkpt>
      <trkpt lat="45.28942" lon="4.75956">
        <ele>352.46</ele>
        <time>2016-09-18T07:53:13Z</time>
      </trkpt>
      <trkpt lat="45.28926" lon="4.75983">
        <ele>356.31</ele>
        <time>2016-09-18T07:53:42Z</time>
      </trkpt>
      <trkpt lat="45.289" lon="4.75995">
        <ele>353.42</ele>
        <time>2016-09-18T07:54:09Z</time>
      </trkpt>
      <trkpt lat="45.28864" lon="4.75998">
        <ele>353.9</ele>
        <time>2016-09-18T07:54:41Z</time>
      </trkpt>
      <trkpt lat="45.28835" lon="4.75998">
        <ele>357.27</ele>
        <time>2016-09-18T07:55:13Z</time>
      </trkpt>
      <trkpt lat="45.28812" lon="4.76002">
        <ele>357.75</ele>
        <time>2016-09-18T07:55:37Z</time>
      </trkpt>
      <trkpt lat="45.28792" lon="4.7603">
        <ele>363.04</ele>
        <time>2016-09-18T07:56:02Z</time>
      </trkpt>
      <trkpt lat="45.28776" lon="4.76055">
        <ele>364.96</ele>
        <time>2016-09-18T07:56:25Z</time>
      </trkpt>
      <trkpt lat="45.28745" lon="4.76068">
        <ele>367.84</ele>
        <time>2016-09-18T07:56:58Z</time>
      </trkpt>
      <trkpt lat="45.2872" lon="4.76064">
        <ele>368.8</ele>
        <time>2016-09-18T07:57:20Z</time>
      </trkpt>
      <trkpt lat="45.2868" lon="4.76052">
        <ele>369.76</ele>
        <time>2016-09-18T07:57:56Z</time>
      </trkpt>
      <trkpt lat="45.28659" lon="4.76041">
        <ele>370.24</ele>
        <time>2016-09-18T07:58:20Z</time>
      </trkpt>
      <trkpt lat="45.28634" lon="4.76026">
        <ele>372.65</ele>
        <time>2016-09-18T07:58:43Z</time>
      </trkpt>
      <trkpt lat="45.28609" lon="4.76014">
        <ele>371.21</ele>
        <time>2016-09-18T07:59:04Z</time>
      </trkpt>
      <trkpt lat="45.28586" lon="4.76003">
        <ele>371.21</ele>
        <time>2016-09-18T07:59:25Z</time>
      </trkpt>
      <trkpt lat="45.28565" lon="4.75991">
        <ele>373.13</ele>
        <time>2016-09-18T07:59:45Z</time>
      </trkpt>
      <trkpt lat="45.28543" lon="4.75976">
        <ele>376.49</ele>
        <time>2016-09-18T08:00:07Z</time>
      </trkpt>
      <trkpt lat="45.28522" lon="4.75962">
        <ele>376.97</ele>
        <time>2016-09-18T08:00:27Z</time>
      </trkpt>
      <trkpt lat="45.28501" lon="4.75949">
        <ele>378.42</ele>
        <time>2016-09-18T08:00:47Z</time>
      </trkpt>
      <trkpt lat="45.28479" lon="4.75939">
        <ele>380.34</ele>
        <time>2016-09-18T08:01:06Z</time>
      </trkpt>
      <trkpt lat="45.28454" lon="4.75925">
        <ele>379.86</ele>
        <time>2016-09-18T08:01:28Z</time>
      </trkpt>
      <trkpt lat="45.28429" lon="4.75909">
        <ele>379.38</ele>
        <time>2016-09-18T08:01:50Z</time>
      </trkpt>
      <trkpt lat="45.28405" lon="4.75888">
        <ele>380.34</ele>
        <time>2016-09-18T08:02:13Z</time>
      </trkpt>
      <trkpt lat="45.28382" lon="4.75879">
        <ele>381.3</ele>
        <time>2016-09-18T08:02:33Z</time>
      </trkpt>
      <trkpt lat="45.28339" lon="4.75887">
        <ele>383.22</ele>
        <time>2016-09-18T08:03:12Z</time>
      </trkpt>
      <trkpt lat="45.28319" lon="4.75904">
        <ele>384.18</ele>
        <time>2016-09-18T08:03:32Z</time>
      </trkpt>
      <trkpt lat="45.28301" lon="4.75912">
        <ele>381.78</ele>
        <time>2016-09-18T08:05:57Z</time>
      </trkpt>
      <trkpt lat="45.28301" lon="4.75951">
        <ele>384.66</ele>
        <time>2016-09-18T08:07:17Z</time>
      </trkpt>
      <trkpt lat="45.28298" lon="4.75992">
        <ele>387.07</ele>
        <time>2016-09-18T08:07:49Z</time>
      </trkpt>
      <trkpt lat="45.28264" lon="4.75996">
        <ele>386.11</ele>
        <time>2016-09-18T08:08:45Z</time>
      </trkpt>
      <trkpt lat="45.28228" lon="4.75997">
        <ele>388.03</ele>
        <time>2016-09-18T08:09:22Z</time>
      </trkpt>
      <trkpt lat="45.28194" lon="4.76">
        <ele>389.47</ele>
        <time>2016-09-18T08:09:55Z</time>
      </trkpt>
      <trkpt lat="45.28171" lon="4.76001">
        <ele>388.51</ele>
        <time>2016-09-18T08:10:17Z</time>
      </trkpt>
      <trkpt lat="45.28141" lon="4.76011">
        <ele>388.03</ele>
        <time>2016-09-18T08:10:48Z</time>
      </trkpt>
      <trkpt lat="45.28104" lon="4.76013">
        <ele>386.11</ele>
        <time>2016-09-18T08:11:24Z</time>
      </trkpt>
      <trkpt lat="45.28062" lon="4.76013">
        <ele>385.15</ele>
        <time>2016-09-18T08:12:05Z</time>
      </trkpt>
      <trkpt lat="45.28032" lon="4.76015">
        <ele>385.63</ele>
        <time>2016-09-18T08:12:34Z</time>
      </trkpt>
      <trkpt lat="45.28055" lon="4.76046">
        <ele>385.15</ele>
        <time>2016-09-18T08:13:22Z</time>
      </trkpt>
      <trkpt lat="45.2809" lon="4.76075">
        <ele>386.11</ele>
        <time>2016-09-18T08:14:00Z</time>
      </trkpt>
      <trkpt lat="45.2811" lon="4.76095">
        <ele>385.63</ele>
        <time>2016-09-18T08:14:25Z</time>
      </trkpt>
      <trkpt lat="45.28133" lon="4.76114">
        <ele>386.59</ele>
        <time>2016-09-18T08:14:57Z</time>
      </trkpt>
      <trkpt lat="45.28163" lon="4.76138">
        <ele>388.03</ele>
        <time>2016-09-18T08:15:34Z</time>
      </trkpt>
      <trkpt lat="45.28182" lon="4.76156">
        <ele>386.59</ele>
        <time>2016-09-18T08:16:45Z</time>
      </trkpt>
      <trkpt lat="45.28218" lon="4.76199">
        <ele>389.95</ele>
        <time>2016-09-18T08:17:24Z</time>
      </trkpt>
      <trkpt lat="45.28214" lon="4.76235">
        <ele>391.39</ele>
        <time>2016-09-18T08:17:45Z</time>
      </trkpt>
      <trkpt lat="45.28205" lon="4.76265">
        <ele>393.32</ele>
        <time>2016-09-18T08:18:06Z</time>
      </trkpt>
      <trkpt lat="45.28198" lon="4.763">
        <ele>393.32</ele>
        <time>2016-09-18T08:18:27Z</time>
      </trkpt>
      <trkpt lat="45.28189" lon="4.76363">
        <ele>391.87</ele>
        <time>2016-09-18T08:19:05Z</time>
      </trkpt>
      <trkpt lat="45.28182" lon="4.76423">
        <ele>391.39</ele>
        <time>2016-09-18T08:19:40Z</time>
      </trkpt>
      <trkpt lat="45.28179" lon="4.76458">
        <ele>390.91</ele>
        <time>2016-09-18T08:20:00Z</time>
      </trkpt>
      <trkpt lat="45.28175" lon="4.76514">
        <ele>391.87</ele>
        <time>2016-09-18T08:20:34Z</time>
      </trkpt>
      <trkpt lat="45.28178" lon="4.76547">
        <ele>391.87</ele>
        <time>2016-09-18T08:20:54Z</time>
      </trkpt>
      <trkpt lat="45.28183" lon="4.76597">
        <ele>392.36</ele>
        <time>2016-09-18T08:21:24Z</time>
      </trkpt>
      <trkpt lat="45.2819" lon="4.76637">
        <ele>390.91</ele>
        <time>2016-09-18T08:21:47Z</time>
      </trkpt>
      <trkpt lat="45.282" lon="4.76675">
        <ele>389.95</ele>
        <time>2016-09-18T08:22:11Z</time>
      </trkpt>
      <trkpt lat="45.28211" lon="4.76706">
        <ele>390.91</ele>
        <time>2016-09-18T08:22:31Z</time>
      </trkpt>
      <trkpt lat="45.28223" lon="4.76737">
        <ele>391.39</ele>
        <time>2016-09-18T08:22:51Z</time>
      </trkpt>
      <trkpt lat="45.28237" lon="4.76774">
        <ele>390.91</ele>
        <time>2016-09-18T08:23:16Z</time>
      </trkpt>
      <trkpt lat="45.28252" lon="4.76809">
        <ele>388.99</ele>
        <time>2016-09-18T08:23:39Z</time>
      </trkpt>
      <trkpt lat="45.28266" lon="4.76848">
        <ele>389.95</ele>
        <time>2016-09-18T08:24:03Z</time>
      </trkpt>
      <trkpt lat="45.2828" lon="4.76883">
        <ele>390.91</ele>
        <time>2016-09-18T08:24:26Z</time>
      </trkpt>
      <trkpt lat="45.28294" lon="4.76916">
        <ele>391.39</ele>
        <time>2016-09-18T08:24:47Z</time>
      </trkpt>
      <trkpt lat="45.28308" lon="4.76955">
        <ele>390.43</ele>
        <time>2016-09-18T08:25:12Z</time>
      </trkpt>
      <trkpt lat="45.28328" lon="4.76986">
        <ele>388.99</ele>
        <time>2016-09-18T08:25:36Z</time>
      </trkpt>
      <trkpt lat="45.28351" lon="4.77002">
        <ele>387.07</ele>
        <time>2016-09-18T08:25:58Z</time>
      </trkpt>
      <trkpt lat="45.28367" lon="4.77014">
        <ele>384.66</ele>
        <time>2016-09-18T08:26:45Z</time>
      </trkpt>
      <trkpt lat="45.28368" lon="4.76979">
        <ele>385.63</ele>
        <time>2016-09-18T08:31:45Z</time>
      </trkpt>
      <trkpt lat="45.28365" lon="4.76938">
        <ele>386.11</ele>
        <time>2016-09-18T08:32:12Z</time>
      </trkpt>
      <trkpt lat="45.28365" lon="4.76881">
        <ele>386.59</ele>
        <time>2016-09-18T08:32:49Z</time>
      </trkpt>
      <trkpt lat="45.28384" lon="4.76871">
        <ele>384.18</ele>
        <time>2016-09-18T08:33:14Z</time>
      </trkpt>
      <trkpt lat="45.28416" lon="4.76899">
        <ele>382.26</ele>
        <time>2016-09-18T08:33:50Z</time>
      </trkpt>
      <trkpt lat="45.28447" lon="4.76939">
        <ele>382.26</ele>
        <time>2016-09-18T08:34:29Z</time>
      </trkpt>
      <trkpt lat="45.28472" lon="4.76972">
        <ele>377.45</ele>
        <time>2016-09-18T08:35:03Z</time>
      </trkpt>
      <trkpt lat="45.28498" lon="4.77009">
        <ele>375.53</ele>
        <time>2016-09-18T08:35:37Z</time>
      </trkpt>
      <trkpt lat="45.2852" lon="4.7706">
        <ele>374.57</ele>
        <time>2016-09-18T08:36:15Z</time>
      </trkpt>
      <trkpt lat="45.28542" lon="4.77099">
        <ele>373.13</ele>
        <time>2016-09-18T08:36:48Z</time>
      </trkpt>
      <trkpt lat="45.28579" lon="4.77114">
        <ele>370.73</ele>
        <time>2016-09-18T08:37:21Z</time>
      </trkpt>
      <trkpt lat="45.28598" lon="4.77131">
        <ele>374.09</ele>
        <time>2016-09-18T08:37:42Z</time>
      </trkpt>
      <trkpt lat="45.28619" lon="4.77146">
        <ele>374.57</ele>
        <time>2016-09-18T08:38:26Z</time>
      </trkpt>
      <trkpt lat="45.28646" lon="4.77156">
        <ele>374.57</ele>
        <time>2016-09-18T08:39:36Z</time>
      </trkpt>
      <trkpt lat="45.28677" lon="4.77166">
        <ele>374.09</ele>
        <time>2016-09-18T08:40:04Z</time>
      </trkpt>
      <trkpt lat="45.28702" lon="4.77177">
        <ele>373.61</ele>
        <time>2016-09-18T08:40:29Z</time>
      </trkpt>
      <trkpt lat="45.28736" lon="4.77192">
        <ele>371.69</ele>
        <time>2016-09-18T08:41:02Z</time>
      </trkpt>
      <trkpt lat="45.2876" lon="4.77204">
        <ele>372.65</ele>
        <time>2016-09-18T08:41:29Z</time>
      </trkpt>
      <trkpt lat="45.28785" lon="4.77214">
        <ele>374.09</ele>
        <time>2016-09-18T08:41:57Z</time>
      </trkpt>
      <trkpt lat="45.28806" lon="4.77226">
        <ele>372.17</ele>
        <time>2016-09-18T08:42:17Z</time>
      </trkpt>
      <trkpt lat="45.28827" lon="4.77245">
        <ele>368.32</ele>
        <time>2016-09-18T08:42:41Z</time>
      </trkpt>
      <trkpt lat="45.28856" lon="4.77272">
        <ele>365.92</ele>
        <time>2016-09-18T08:43:13Z</time>
      </trkpt>
      <trkpt lat="45.28875" lon="4.77291">
        <ele>365.44</ele>
        <time>2016-09-18T08:43:35Z</time>
      </trkpt>
      <trkpt lat="45.28895" lon="4.77309">
        <ele>364.96</ele>
        <time>2016-09-18T08:44:04Z</time>
      </trkpt>
      <trkpt lat="45.2893" lon="4.77312">
        <ele>361.11</ele>
        <time>2016-09-18T08:44:41Z</time>
      </trkpt>
      <trkpt lat="45.28966" lon="4.77315">
        <ele>355.83</ele>
        <time>2016-09-18T08:45:17Z</time>
      </trkpt>
      <trkpt lat="45.28994" lon="4.77318">
        <ele>351.98</ele>
        <time>2016-09-18T08:45:45Z</time>
      </trkpt>
      <trkpt lat="45.29026" lon="4.77322">
        <ele>348.62</ele>
        <time>2016-09-18T08:46:18Z</time>
      </trkpt>
      <trkpt lat="45.29056" lon="4.77319">
        <ele>343.81</ele>
        <time>2016-09-18T08:46:51Z</time>
      </trkpt>
      <trkpt lat="45.2908" lon="4.77324">
        <ele>338.52</ele>
        <time>2016-09-18T08:47:25Z</time>
      </trkpt>
      <trkpt lat="45.29099" lon="4.77326">
        <ele>335.64</ele>
        <time>2016-09-18T08:48:00Z</time>
      </trkpt>
      <trkpt lat="45.29125" lon="4.77306">
        <ele>328.43</ele>
        <time>2016-09-18T08:48:35Z</time>
      </trkpt>
      <trkpt lat="45.2915" lon="4.77301">
        <ele>327.95</ele>
        <time>2016-09-18T08:49:04Z</time>
      </trkpt>
      <trkpt lat="45.29173" lon="4.77302">
        <ele>322.18</ele>
        <time>2016-09-18T08:49:32Z</time>
      </trkpt>
      <trkpt lat="45.29199" lon="4.7731">
        <ele>327.95</ele>
        <time>2016-09-18T08:50:06Z</time>
      </trkpt>
      <trkpt lat="45.29223" lon="4.77323">
        <ele>328.43</ele>
        <time>2016-09-18T08:50:35Z</time>
      </trkpt>
      <trkpt lat="45.29248" lon="4.77345">
        <ele>333.23</ele>
        <time>2016-09-18T08:51:05Z</time>
      </trkpt>
      <trkpt lat="45.2927" lon="4.77364">
        <ele>336.12</ele>
        <time>2016-09-18T08:51:32Z</time>
      </trkpt>
      <trkpt lat="45.29289" lon="4.77383">
        <ele>334.68</ele>
        <time>2016-09-18T08:52:00Z</time>
      </trkpt>
      <trkpt lat="45.29305" lon="4.77407">
        <ele>332.27</ele>
        <time>2016-09-18T08:52:25Z</time>
      </trkpt>
      <trkpt lat="45.29328" lon="4.77428">
        <ele>331.79</ele>
        <time>2016-09-18T08:52:53Z</time>
      </trkpt>
      <trkpt lat="45.29355" lon="4.77458">
        <ele>326.5</ele>
        <time>2016-09-18T08:53:24Z</time>
      </trkpt>
      <trkpt lat="45.29375" lon="4.77474">
        <ele>325.06</ele>
        <time>2016-09-18T08:53:49Z</time>
      </trkpt>
      <trkpt lat="45.29394" lon="4.775">
        <ele>323.14</ele>
        <time>2016-09-18T08:54:17Z</time>
      </trkpt>
      <trkpt lat="45.29417" lon="4.77525">
        <ele>317.85</ele>
        <time>2016-09-18T08:54:46Z</time>
      </trkpt>
      <trkpt lat="45.29441" lon="4.77546">
        <ele>316.41</ele>
        <time>2016-09-18T08:55:24Z</time>
      </trkpt>
      <trkpt lat="45.29467" lon="4.77566">
        <ele>321.22</ele>
        <time>2016-09-18T08:56:00Z</time>
      </trkpt>
      <trkpt lat="45.29484" lon="4.77589">
        <ele>314.01</ele>
        <time>2016-09-18T08:56:23Z</time>
      </trkpt>
      <trkpt lat="45.29498" lon="4.77615">
        <ele>312.09</ele>
        <time>2016-09-18T08:56:53Z</time>
      </trkpt>
      <trkpt lat="45.29512" lon="4.77667">
        <ele>287.57</ele>
        <time>2016-09-18T08:57:29Z</time>
      </trkpt>
      <trkpt lat="45.29513" lon="4.77703">
        <ele>278.92</ele>
        <time>2016-09-18T08:57:54Z</time>
      </trkpt>
      <trkpt lat="45.2948" lon="4.77704">
        <ele>276.52</ele>
        <time>2016-09-18T08:58:37Z</time>
      </trkpt>
      <trkpt lat="45.29467" lon="4.77729">
        <ele>298.63</ele>
        <time>2016-09-18T08:59:24Z</time>
      </trkpt>
      <trkpt lat="45.29487" lon="4.77753">
        <ele>312.09</ele>
        <time>2016-09-18T09:00:09Z</time>
      </trkpt>
      <trkpt lat="45.29518" lon="4.77779">
        <ele>321.22</ele>
        <time>2016-09-18T09:00:41Z</time>
      </trkpt>
      <trkpt lat="45.29541" lon="4.77792">
        <ele>329.87</ele>
        <time>2016-09-18T09:01:00Z</time>
      </trkpt>
      <trkpt lat="45.29564" lon="4.77822">
        <ele>318.33</ele>
        <time>2016-09-18T09:01:36Z</time>
      </trkpt>
      <trkpt lat="45.29599" lon="4.77834">
        <ele>314.49</ele>
        <time>2016-09-18T09:02:10Z</time>
      </trkpt>
      <trkpt lat="45.29605" lon="4.77861">
        <ele>280.36</ele>
        <time>2016-09-18T09:02:43Z</time>
      </trkpt>
      <trkpt lat="45.29583" lon="4.77877">
        <ele>253.93</ele>
        <time>2016-09-18T09:03:02Z</time>
      </trkpt>
      <trkpt lat="45.29579" lon="4.77912">
        <ele>243.35</ele>
        <time>2016-09-18T09:03:35Z</time>
      </trkpt>
      <trkpt lat="45.29595" lon="4.77942">
        <ele>239.99</ele>
        <time>2016-09-18T09:04:03Z</time>
      </trkpt>
      <trkpt lat="45.2961" lon="4.77977">
        <ele>238.06</ele>
        <time>2016-09-18T09:04:37Z</time>
      </trkpt>
      <trkpt lat="45.29626" lon="4.78006">
        <ele>237.58</ele>
        <time>2016-09-18T09:05:05Z</time>
      </trkpt>
      <trkpt lat="45.29648" lon="4.7804">
        <ele>238.06</ele>
        <time>2016-09-18T09:05:48Z</time>
      </trkpt>
      <trkpt lat="45.29662" lon="4.78067">
        <ele>236.62</ele>
        <time>2016-09-18T09:06:15Z</time>
      </trkpt>
      <trkpt lat="45.29676" lon="4.78096">
        <ele>225.57</ele>
        <time>2016-09-18T09:06:39Z</time>
      </trkpt>
      <trkpt lat="45.29687" lon="4.78135">
        <ele>214.03</ele>
        <time>2016-09-18T09:07:19Z</time>
      </trkpt>
      <trkpt lat="45.29701" lon="4.78166">
        <ele>207.78</ele>
        <time>2016-09-18T09:07:51Z</time>
      </trkpt>
      <trkpt lat="45.29715" lon="4.78193">
        <ele>202.01</ele>
        <time>2016-09-18T09:08:25Z</time>
      </trkpt>
      <trkpt lat="45.29721" lon="4.78224">
        <ele>199.61</ele>
        <time>2016-09-18T09:08:47Z</time>
      </trkpt>
      <trkpt lat="45.29743" lon="4.78253">
        <ele>195.77</ele>
        <time>2016-09-18T09:09:18Z</time>
      </trkpt>
      <trkpt lat="45.29762" lon="4.7828">
        <ele>192.88</ele>
        <time>2016-09-18T09:09:45Z</time>
      </trkpt>
      <trkpt lat="45.29778" lon="4.78301">
        <ele>194.32</ele>
        <time>2016-09-18T09:10:11Z</time>
      </trkpt>
      <trkpt lat="45.29783" lon="4.78323">
        <ele>188.56</ele>
        <time>2016-09-18T09:11:06Z</time>
      </trkpt>
      <trkpt lat="45.29791" lon="4.78352">
        <ele>188.56</ele>
        <time>2016-09-18T09:11:32Z</time>
      </trkpt>
      <trkpt lat="45.29807" lon="4.78385">
        <ele>180.87</ele>
        <time>2016-09-18T09:12:05Z</time>
      </trkpt>
      <trkpt lat="45.29817" lon="4.78418">
        <ele>183.27</ele>
        <time>2016-09-18T09:12:28Z</time>
      </trkpt>
      <trkpt lat="45.29828" lon="4.78447">
        <ele>187.11</ele>
        <time>2016-09-18T09:12:49Z</time>
      </trkpt>
      <trkpt lat="45.29848" lon="4.7848">
        <ele>190.96</ele>
        <time>2016-09-18T09:13:18Z</time>
      </trkpt>
      <trkpt lat="45.29858" lon="4.7851">
        <ele>182.79</ele>
        <time>2016-09-18T09:13:34Z</time>
      </trkpt>
      <trkpt lat="45.29873" lon="4.78543">
        <ele>174.14</ele>
        <time>2016-09-18T09:14:09Z</time>
      </trkpt>
      <trkpt lat="45.29891" lon="4.78582">
        <ele>171.25</ele>
        <time>2016-09-18T09:14:45Z</time>
      </trkpt>
      <trkpt lat="45.29908" lon="4.78604">
        <ele>169.33</ele>
        <time>2016-09-18T09:15:10Z</time>
      </trkpt>
      <trkpt lat="45.29926" lon="4.78625">
        <ele>164.04</ele>
        <time>2016-09-18T09:15:25Z</time>
      </trkpt>
      <trkpt lat="45.29949" lon="4.78642">
        <ele>165.96</ele>
        <time>2016-09-18T09:15:47Z</time>
      </trkpt>
      <trkpt lat="45.29975" lon="4.7867">
        <ele>153.95</ele>
        <time>2016-09-18T09:16:26Z</time>
      </trkpt>
      <trkpt lat="45.29999" lon="4.78682">
        <ele>149.62</ele>
        <time>2016-09-18T09:16:51Z</time>
      </trkpt>
      <trkpt lat="45.30024" lon="4.78689">
        <ele>149.62</ele>
        <time>2016-09-18T09:17:16Z</time>
      </trkpt>
      <trkpt lat="45.3005" lon="4.78684">
        <ele>150.58</ele>
        <time>2016-09-18T09:17:41Z</time>
      </trkpt>
      <trkpt lat="45.30077" lon="4.78669">
        <ele>149.14</ele>
        <time>2016-09-18T09:18:11Z</time>
      </trkpt>
      <trkpt lat="45.30104" lon="4.78663">
        <ele>148.18</ele>
        <time>2016-09-18T09:18:37Z</time>
      </trkpt>
      <trkpt lat="45.30124" lon="4.78684">
        <ele>147.22</ele>
        <time>2016-09-18T09:18:58Z</time>
      </trkpt>
      <trkpt lat="45.30144" lon="4.78723">
        <ele>145.3</ele>
        <time>2016-09-18T09:19:29Z</time>
      </trkpt>
      <trkpt lat="45.30155" lon="4.78764">
        <ele>145.78</ele>
        <time>2016-09-18T09:19:56Z</time>
      </trkpt>
      <trkpt lat="45.30175" lon="4.78797">
        <ele>144.82</ele>
        <time>2016-09-18T09:20:24Z</time>
      </trkpt>
      <trkpt lat="45.30191" lon="4.78819">
        <ele>147.22</ele>
        <time>2016-09-18T09:21:15Z</time>
      </trkpt>
      <trkpt lat="45.30204" lon="4.78856">
        <ele>142.41</ele>
        <time>2016-09-18T09:21:54Z</time>
      </trkpt>
      <trkpt lat="45.3021" lon="4.78897">
        <ele>141.93</ele>
        <time>2016-09-18T09:22:21Z</time>
      </trkpt>
      <trkpt lat="45.30196" lon="4.7895">
        <ele>143.85</ele>
        <time>2016-09-18T09:22:59Z</time>
      </trkpt>
      <trkpt lat="45.30192" lon="4.78986">
        <ele>142.89</ele>
        <time>2016-09-18T09:23:24Z</time>
      </trkpt>
      <trkpt lat="45.30193" lon="4.79042">
        <ele>138.57</ele>
        <time>2016-09-18T09:24:00Z</time>
      </trkpt>
      <trkpt lat="45.30205" lon="4.791">
        <ele>136.64</ele>
        <time>2016-09-18T09:24:43Z</time>
      </trkpt>
      <trkpt lat="45.3022" lon="4.79136">
        <ele>138.57</ele>
        <time>2016-09-18T09:25:13Z</time>
      </trkpt>
      <trkpt lat="45.30222" lon="4.79166">
        <ele>141.45</ele>
        <time>2016-09-18T09:25:39Z</time>
      </trkpt>
      <trkpt lat="45.30212" lon="4.79216">
        <ele>141.93</ele>
        <time>2016-09-18T09:26:11Z</time>
      </trkpt>
      <trkpt lat="45.30206" lon="4.79248">
        <ele>142.41</ele>
        <time>2016-09-18T09:26:33Z</time>
      </trkpt>
      <trkpt lat="45.30197" lon="4.7928">
        <ele>140.49</ele>
        <time>2016-09-18T09:27:26Z</time>
      </trkpt>
      <trkpt lat="45.30186" lon="4.79322">
        <ele>145.3</ele>
        <time>2016-09-18T09:27:56Z</time>
      </trkpt>
      <trkpt lat="45.30205" lon="4.79362">
        <ele>143.85</ele>
        <time>2016-09-18T09:28:29Z</time>
      </trkpt>
      <trkpt lat="45.30223" lon="4.79396">
        <ele>142.41</ele>
        <time>2016-09-18T09:29:01Z</time>
      </trkpt>
      <trkpt lat="45.30215" lon="4.79407">
        <ele>138.09</ele>
        <time>2016-09-18T09:30:57Z</time>
      </trkpt>
      <trkpt lat="45.30213" lon="4.79417">
        <ele>141.93</ele>
        <time>2016-09-18T09:34:28Z</time>
      </trkpt>
      <trkpt lat="45.30212" lon="4.7941">
        <ele>142.41</ele>
        <time>2016-09-18T09:41:44Z</time>
      </trkpt>
      <trkpt lat="45.30213" lon="4.7941">
        <ele>145.3</ele>
        <time>2016-09-18T09:50:39Z</time>
      </trkpt>
      <trkpt lat="45.30217" lon="4.7941">
        <ele>144.82</ele>
        <time>2016-09-18T09:57:07Z</time>
      </trkpt>
      <trkpt lat="45.30217" lon="4.79408">
        <ele>162.12</ele>
        <time>2016-09-18T10:03:19Z</time>
      </trkpt>
      <trkpt lat="45.30209" lon="4.79386">
        <ele>144.34</ele>
        <time>2016-09-18T10:05:39Z</time>
      </trkpt>
      <trkpt lat="45.30192" lon="4.79354">
        <ele>147.22</ele>
        <time>2016-09-18T10:06:22Z</time>
      </trkpt>
      <trkpt lat="45.3019" lon="4.79322">
        <ele>148.18</ele>
        <time>2016-09-18T10:06:49Z</time>
      </trkpt>
      <trkpt lat="45.30197" lon="4.79288">
        <ele>149.62</ele>
        <time>2016-09-18T10:07:14Z</time>
      </trkpt>
      <trkpt lat="45.30205" lon="4.79252">
        <ele>149.62</ele>
        <time>2016-09-18T10:07:43Z</time>
      </trkpt>
      <trkpt lat="45.30215" lon="4.7921">
        <ele>152.99</ele>
        <time>2016-09-18T10:08:13Z</time>
      </trkpt>
      <trkpt lat="45.30227" lon="4.79175">
        <ele>154.91</ele>
        <time>2016-09-18T10:08:38Z</time>
      </trkpt>
      <trkpt lat="45.3025" lon="4.79139">
        <ele>146.26</ele>
        <time>2016-09-18T10:09:10Z</time>
      </trkpt>
      <trkpt lat="45.30274" lon="4.79118">
        <ele>143.85</ele>
        <time>2016-09-18T10:09:37Z</time>
      </trkpt>
      <trkpt lat="45.30298" lon="4.79083">
        <ele>149.62</ele>
        <time>2016-09-18T10:10:11Z</time>
      </trkpt>
      <trkpt lat="45.3032" lon="4.79042">
        <ele>149.14</ele>
        <time>2016-09-18T10:10:42Z</time>
      </trkpt>
      <trkpt lat="45.30336" lon="4.79019">
        <ele>142.41</ele>
        <time>2016-09-18T10:12:23Z</time>
      </trkpt>
      <trkpt lat="45.30347" lon="4.78988">
        <ele>143.37</ele>
        <time>2016-09-18T10:14:32Z</time>
      </trkpt>
      <trkpt lat="45.30366" lon="4.78945">
        <ele>144.34</ele>
        <time>2016-09-18T10:15:11Z</time>
      </trkpt>
      <trkpt lat="45.30381" lon="4.78906">
        <ele>145.78</ele>
        <time>2016-09-18T10:15:43Z</time>
      </trkpt>
      <trkpt lat="45.30399" lon="4.78864">
        <ele>148.66</ele>
        <time>2016-09-18T10:16:16Z</time>
      </trkpt>
      <trkpt lat="45.30428" lon="4.78833">
        <ele>153.47</ele>
        <time>2016-09-18T10:16:52Z</time>
      </trkpt>
      <trkpt lat="45.30464" lon="4.78795">
        <ele>153.95</ele>
        <time>2016-09-18T10:17:31Z</time>
      </trkpt>
      <trkpt lat="45.30491" lon="4.78757">
        <ele>152.03</ele>
        <time>2016-09-18T10:18:06Z</time>
      </trkpt>
      <trkpt lat="45.3052" lon="4.78715">
        <ele>149.62</ele>
        <time>2016-09-18T10:18:42Z</time>
      </trkpt>
      <trkpt lat="45.30545" lon="4.78671">
        <ele>147.7</ele>
        <time>2016-09-18T10:19:18Z</time>
      </trkpt>
      <trkpt lat="45.30571" lon="4.78673">
        <ele>144.82</ele>
        <time>2016-09-18T10:19:47Z</time>
      </trkpt>
      <trkpt lat="45.3059" lon="4.78699">
        <ele>144.82</ele>
        <time>2016-09-18T10:20:08Z</time>
      </trkpt>
      <trkpt lat="45.30612" lon="4.78727">
        <ele>142.41</ele>
        <time>2016-09-18T10:20:35Z</time>
      </trkpt>
      <trkpt lat="45.30642" lon="4.787">
        <ele>146.74</ele>
        <time>2016-09-18T10:21:09Z</time>
      </trkpt>
      <trkpt lat="45.30665" lon="4.78649">
        <ele>146.26</ele>
        <time>2016-09-18T10:21:48Z</time>
      </trkpt>
      <trkpt lat="45.30679" lon="4.78614">
        <ele>147.22</ele>
        <time>2016-09-18T10:22:14Z</time>
      </trkpt>
      <trkpt lat="45.30702" lon="4.78588">
        <ele>154.91</ele>
        <time>2016-09-18T10:22:43Z</time>
      </trkpt>
      <trkpt lat="45.30715" lon="4.78555">
        <ele>155.87</ele>
        <time>2016-09-18T10:23:06Z</time>
      </trkpt>
      <trkpt lat="45.30729" lon="4.78514">
        <ele>159.24</ele>
        <time>2016-09-18T10:23:34Z</time>
      </trkpt>
      <trkpt lat="45.30752" lon="4.78467">
        <ele>157.31</ele>
        <time>2016-09-18T10:24:08Z</time>
      </trkpt>
      <trkpt lat="45.30772" lon="4.78417">
        <ele>150.58</ele>
        <time>2016-09-18T10:24:42Z</time>
      </trkpt>
      <trkpt lat="45.30785" lon="4.78377">
        <ele>152.99</ele>
        <time>2016-09-18T10:25:09Z</time>
      </trkpt>
      <trkpt lat="45.30798" lon="4.78349">
        <ele>150.1</ele>
        <time>2016-09-18T10:25:40Z</time>
      </trkpt>
      <trkpt lat="45.30811" lon="4.78321">
        <ele>146.26</ele>
        <time>2016-09-18T10:26:44Z</time>
      </trkpt>
      <trkpt lat="45.3083" lon="4.78304">
        <ele>143.37</ele>
        <time>2016-09-18T10:27:14Z</time>
      </trkpt>
      <trkpt lat="45.30838" lon="4.78269">
        <ele>140.97</ele>
        <time>2016-09-18T10:29:04Z</time>
      </trkpt>
      <trkpt lat="45.30844" lon="4.78223">
        <ele>142.41</ele>
        <time>2016-09-18T10:29:54Z</time>
      </trkpt>
      <trkpt lat="45.30857" lon="4.7819">
        <ele>144.82</ele>
        <time>2016-09-18T10:30:20Z</time>
      </trkpt>
      <trkpt lat="45.30875" lon="4.78149">
        <ele>145.3</ele>
        <time>2016-09-18T10:30:52Z</time>
      </trkpt>
      <trkpt lat="45.30896" lon="4.7811">
        <ele>144.34</ele>
        <time>2016-09-18T10:31:27Z</time>
      </trkpt>
      <trkpt lat="45.30913" lon="4.78063">
        <ele>143.85</ele>
        <time>2016-09-18T10:32:02Z</time>
      </trkpt>
      <trkpt lat="45.30932" lon="4.78016">
        <ele>143.85</ele>
        <time>2016-09-18T10:32:37Z</time>
      </trkpt>
      <trkpt lat="45.30954" lon="4.77971">
        <ele>145.3</ele>
        <time>2016-09-18T10:33:13Z</time>
      </trkpt>
      <trkpt lat="45.30977" lon="4.77922">
        <ele>145.78</ele>
        <time>2016-09-18T10:33:51Z</time>
      </trkpt>
      <trkpt lat="45.30996" lon="4.77877">
        <ele>145.78</ele>
        <time>2016-09-18T10:34:26Z</time>
      </trkpt>
      <trkpt lat="45.3102" lon="4.77824">
        <ele>143.85</ele>
        <time>2016-09-18T10:35:04Z</time>
      </trkpt>
      <trkpt lat="45.31043" lon="4.77768">
        <ele>144.82</ele>
        <time>2016-09-18T10:35:43Z</time>
      </trkpt>
      <trkpt lat="45.31066" lon="4.77718">
        <ele>144.34</ele>
        <time>2016-09-18T10:36:20Z</time>
      </trkpt>
      <trkpt lat="45.31089" lon="4.7767">
        <ele>144.34</ele>
        <time>2016-09-18T10:36:56Z</time>
      </trkpt>
      <trkpt lat="45.31109" lon="4.77626">
        <ele>144.34</ele>
        <time>2016-09-18T10:37:27Z</time>
      </trkpt>
      <trkpt lat="45.31128" lon="4.77589">
        <ele>144.34</ele>
        <time>2016-09-18T10:38:38Z</time>
      </trkpt>
      <trkpt lat="45.31153" lon="4.77546">
        <ele>141.45</ele>
        <time>2016-09-18T10:39:09Z</time>
      </trkpt>
      <trkpt lat="45.3117" lon="4.77516">
        <ele>143.85</ele>
        <time>2016-09-18T10:39:28Z</time>
      </trkpt>
      <trkpt lat="45.31184" lon="4.77488">
        <ele>144.82</ele>
        <time>2016-09-18T10:39:46Z</time>
      </trkpt>
      <trkpt lat="45.31206" lon="4.7746">
        <ele>144.82</ele>
        <time>2016-09-18T10:40:07Z</time>
      </trkpt>
      <trkpt lat="45.31234" lon="4.77411">
        <ele>142.41</ele>
        <time>2016-09-18T10:40:42Z</time>
      </trkpt>
      <trkpt lat="45.3125" lon="4.77376">
        <ele>142.89</ele>
        <time>2016-09-18T10:41:05Z</time>
      </trkpt>
      <trkpt lat="45.31265" lon="4.77345">
        <ele>141.93</ele>
        <time>2016-09-18T10:41:26Z</time>
      </trkpt>
      <trkpt lat="45.3128" lon="4.77316">
        <ele>141.93</ele>
        <time>2016-09-18T10:41:49Z</time>
      </trkpt>
      <trkpt lat="45.31299" lon="4.77279">
        <ele>142.41</ele>
        <time>2016-09-18T10:42:17Z</time>
      </trkpt>
      <trkpt lat="45.31324" lon="4.77232">
        <ele>142.89</ele>
        <time>2016-09-18T10:42:53Z</time>
      </trkpt>
      <trkpt lat="45.31339" lon="4.77204">
        <ele>142.89</ele>
        <time>2016-09-18T10:43:13Z</time>
      </trkpt>
      <trkpt lat="45.31367" lon="4.77152">
        <ele>142.89</ele>
        <time>2016-09-18T10:43:53Z</time>
      </trkpt>
      <trkpt lat="45.31377" lon="4.77118">
        <ele>142.41</ele>
        <time>2016-09-18T10:44:15Z</time>
      </trkpt>
      <trkpt lat="45.31389" lon="4.77087">
        <ele>143.37</ele>
        <time>2016-09-18T10:44:38Z</time>
      </trkpt>
      <trkpt lat="45.31395" lon="4.77087">
        <ele>148.18</ele>
        <time>2016-09-18T10:45:26Z</time>
      </trkpt>
      <trkpt lat="45.3142" lon="4.77047">
        <ele>147.22</ele>
        <time>2016-09-18T10:46:00Z</time>
      </trkpt>
      <trkpt lat="45.31445" lon="4.76997">
        <ele>147.22</ele>
        <time>2016-09-18T10:46:38Z</time>
      </trkpt>
      <trkpt lat="45.3146" lon="4.76969">
        <ele>145.78</ele>
        <time>2016-09-18T10:47:00Z</time>
      </trkpt>
      <trkpt lat="45.31477" lon="4.76943">
        <ele>147.22</ele>
        <time>2016-09-18T10:47:21Z</time>
      </trkpt>
      <trkpt lat="45.31511" lon="4.76895">
        <ele>147.22</ele>
        <time>2016-09-18T10:48:01Z</time>
      </trkpt>
      <trkpt lat="45.31539" lon="4.76851">
        <ele>147.22</ele>
        <time>2016-09-18T10:48:36Z</time>
      </trkpt>
      <trkpt lat="45.3157" lon="4.7681">
        <ele>149.14</ele>
        <time>2016-09-18T10:49:10Z</time>
      </trkpt>
      <trkpt lat="45.31588" lon="4.76782">
        <ele>148.66</ele>
        <time>2016-09-18T10:49:31Z</time>
      </trkpt>
      <trkpt lat="45.31605" lon="4.7676">
        <ele>149.62</ele>
        <time>2016-09-18T10:49:50Z</time>
      </trkpt>
      <trkpt lat="45.31622" lon="4.76737">
        <ele>146.26</ele>
        <time>2016-09-18T10:50:41Z</time>
      </trkpt>
      <trkpt lat="45.31628" lon="4.76747">
        <ele>145.78</ele>
        <time>2016-09-18T10:54:50Z</time>
      </trkpt>
      <trkpt lat="45.31625" lon="4.76741">
        <ele>146.74</ele>
        <time>2016-09-18T10:55:57Z</time>
      </trkpt>
    </trkseg>
  </trk>
</gpx>